sensor_id;sensor_type;location;lat;lon;timestamp;pressure;altitude;pressure_sealevel;temperature;humidity
61568;BME280;47462;59.172;17.196;2023-12-20T00:00:54;99174.19;;;-0.91;92.56
61568;BME280;47462;59.172;17.196;2023-12-20T00:03:19;99164.84;;;-0.93;92.99
61568;BME280;47462;59.172;17.196;2023-12-20T00:05:45;99167.41;;;-0.93;92.88
61568;BME280;47462;59.172;17.196;2023-12-20T00:08:11;99159.75;;;-0.95;93.17
61568;BME280;47462;59.172;17.196;2023-12-20T00:10:36;99163.09;;;-0.90;92.94
61568;BME280;47462;59.172;17.196;2023-12-20T00:13:02;99153.75;;;-0.97;92.77
61568;BME280;47462;59.172;17.196;2023-12-20T00:15:27;99158.84;;;-0.91;92.64
61568;BME280;47462;59.172;17.196;2023-12-20T00:17:53;99156.28;;;-0.91;93.05
61568;BME280;47462;59.172;17.196;2023-12-20T00:20:18;99152.84;;;-0.88;93.13
61568;BME280;47462;59.172;17.196;2023-12-20T00:22:44;99148.53;;;-0.84;93.74
61568;BME280;47462;59.172;17.196;2023-12-20T00:25:09;99149.47;;;-0.90;93.51
61568;BME280;47462;59.172;17.196;2023-12-20T00:27:34;99158.81;;;-0.86;93.35
61568;BME280;47462;59.172;17.196;2023-12-20T00:30:00;99151.19;;;-0.94;92.87
61568;BME280;47462;59.172;17.196;2023-12-20T00:32:25;99154.66;;;-1.02;93.12
61568;BME280;47462;59.172;17.196;2023-12-20T00:34:51;99155.53;;;-1.03;93.42
61568;BME280;47462;59.172;17.196;2023-12-20T00:37:16;99163.22;;;-1.05;93.27
61568;BME280;47462;59.172;17.196;2023-12-20T00:39:42;99169.13;;;-1.00;93.55
61568;BME280;47462;59.172;17.196;2023-12-20T00:42:07;99171.72;;;-1.01;93.32
61568;BME280;47462;59.172;17.196;2023-12-20T00:44:33;99169.13;;;-1.00;93.79
61568;BME280;47462;59.172;17.196;2023-12-20T00:46:58;99172.50;;;-0.88;94.45
61568;BME280;47462;59.172;17.196;2023-12-20T00:49:24;99174.09;;;-0.77;94.58
61568;BME280;47462;59.172;17.196;2023-12-20T00:51:49;99167.25;;;-0.72;94.49
61568;BME280;47462;59.172;17.196;2023-12-20T00:54:16;99168.94;;;-0.66;94.24
61568;BME280;47462;59.172;17.196;2023-12-20T00:56:41;99168.88;;;-0.61;94.58
61568;BME280;47462;59.172;17.196;2023-12-20T00:59:07;99168.84;;;-0.55;94.70
61568;BME280;47462;59.172;17.196;2023-12-20T01:01:32;99170.50;;;-0.52;94.83
61568;BME280;47462;59.172;17.196;2023-12-20T01:03:58;99157.72;;;-0.56;94.72
61568;BME280;47462;59.172;17.196;2023-12-20T01:06:24;99165.31;;;-0.46;94.44
61568;BME280;47462;59.172;17.196;2023-12-20T01:08:49;99162.72;;;-0.42;94.92
61568;BME280;47462;59.172;17.196;2023-12-20T01:11:15;99164.41;;;-0.39;94.34
61568;BME280;47462;59.172;17.196;2023-12-20T01:13:40;99156.78;;;-0.45;94.23
61568;BME280;47462;59.172;17.196;2023-12-20T01:16:06;99137.22;;;-0.56;94.38
61568;BME280;47462;59.172;17.196;2023-12-20T01:18:31;99153.44;;;-0.50;94.51
61568;BME280;47462;59.172;17.196;2023-12-20T01:21:01;99162.78;;;-0.46;94.52
61568;BME280;47462;59.172;17.196;2023-12-20T01:23:28;99155.97;;;-0.49;94.44
61568;BME280;47462;59.172;17.196;2023-12-20T01:25:53;99144.06;;;-0.56;94.39
61568;BME280;47462;59.172;17.196;2023-12-20T01:28:19;99158.53;;;-0.47;94.53
61568;BME280;47462;59.172;17.196;2023-12-20T01:30:44;99146.59;;;-0.53;94.55
61568;BME280;47462;59.172;17.196;2023-12-20T01:33:10;99160.19;;;-0.43;94.52
61568;BME280;47462;59.172;17.196;2023-12-20T01:35:36;99157.59;;;-0.40;94.36
61568;BME280;47462;59.172;17.196;2023-12-20T01:38:01;99149.91;;;-0.40;94.06
61568;BME280;47462;59.172;17.196;2023-12-20T01:40:27;99151.66;;;-0.45;93.92
61568;BME280;47462;59.172;17.196;2023-12-20T01:43:07;99160.28;;;-0.56;93.26
61568;BME280;47462;59.172;17.196;2023-12-20T01:45:37;99151.78;;;-0.58;93.58
61568;BME280;47462;59.172;17.196;2023-12-20T01:48:04;99158.56;;;-0.53;93.65
61568;BME280;47462;59.172;17.196;2023-12-20T01:50:31;99155.13;;;-0.52;93.76
61568;BME280;47462;59.172;17.196;2023-12-20T01:52:57;99154.22;;;-0.45;93.81
61568;BME280;47462;59.172;17.196;2023-12-20T01:55:25;99161.91;;;-0.44;93.86
61568;BME280;47462;59.172;17.196;2023-12-20T01:57:51;99159.34;;;-0.45;93.69
61568;BME280;47462;59.172;17.196;2023-12-20T02:00:17;99150.00;;;-0.52;93.93
61568;BME280;47462;59.172;17.196;2023-12-20T02:02:43;99157.72;;;-0.54;94.13
61568;BME280;47462;59.172;17.196;2023-12-20T02:05:10;99144.91;;;-0.56;94.59
61568;BME280;47462;59.172;17.196;2023-12-20T02:07:36;99145.78;;;-0.55;94.60
61568;BME280;47462;59.172;17.196;2023-12-20T02:10:02;99143.19;;;-0.53;94.58
61568;BME280;47462;59.172;17.196;2023-12-20T02:12:29;99138.94;;;-0.55;96.06
61568;BME280;47462;59.172;17.196;2023-12-20T02:14:54;99117.63;;;-0.60;95.90
61568;BME280;47462;59.172;17.196;2023-12-20T02:17:20;99126.84;;;-0.40;96.07
61568;BME280;47462;59.172;17.196;2023-12-20T02:19:46;99112.28;;;-0.37;95.61
61568;BME280;47462;59.172;17.196;2023-12-20T02:22:12;99110.53;;;-0.33;95.50
61568;BME280;47462;59.172;17.196;2023-12-20T02:24:38;99099.50;;;-0.40;95.40
61568;BME280;47462;59.172;17.196;2023-12-20T02:27:05;99108.03;;;-0.38;95.80
61568;BME280;47462;59.172;17.196;2023-12-20T02:29:35;99125.00;;;-0.26;95.46
61568;BME280;47462;59.172;17.196;2023-12-20T02:32:01;99124.97;;;-0.24;96.20
61568;BME280;47462;59.172;17.196;2023-12-20T02:34:26;99114.69;;;-0.21;95.89
61568;BME280;47462;59.172;17.196;2023-12-20T02:36:51;99116.31;;;-0.15;95.42
61568;BME280;47462;59.172;17.196;2023-12-20T02:39:20;99117.16;;;-0.10;96.01
61568;BME280;47462;59.172;17.196;2023-12-20T02:41:46;99113.66;;;-0.06;96.19
61568;BME280;47462;59.172;17.196;2023-12-20T02:44:11;99111.91;;;-0.01;96.48
61568;BME280;47462;59.172;17.196;2023-12-20T02:46:36;99111.03;;;0.03;96.82
61568;BME280;47462;59.172;17.196;2023-12-20T02:49:02;99099.03;;;0.05;97.19
61568;BME280;47462;59.172;17.196;2023-12-20T02:51:27;99100.66;;;0.12;97.28
61568;BME280;47462;59.172;17.196;2023-12-20T02:53:53;99098.00;;;0.19;97.20
61568;BME280;47462;59.172;17.196;2023-12-20T02:56:18;99092.81;;;0.23;96.70
61568;BME280;47462;59.172;17.196;2023-12-20T02:58:44;99085.97;;;0.24;96.66
61568;BME280;47462;59.172;17.196;2023-12-20T03:01:09;99082.53;;;0.25;97.12
61568;BME280;47462;59.172;17.196;2023-12-20T03:03:35;99080.78;;;0.28;96.81
61568;BME280;47462;59.172;17.196;2023-12-20T03:06:00;99074.81;;;0.28;97.03
61568;BME280;47462;59.172;17.196;2023-12-20T03:08:26;99075.59;;;0.33;96.89
61568;BME280;47462;59.172;17.196;2023-12-20T03:10:51;99069.56;;;0.35;96.76
61568;BME280;47462;59.172;17.196;2023-12-20T03:13:17;99067.81;;;0.38;96.61
61568;BME280;47462;59.172;17.196;2023-12-20T03:15:42;99055.88;;;0.33;96.51
61568;BME280;47462;59.172;17.196;2023-12-20T03:18:07;99063.53;;;0.38;96.48
61568;BME280;47462;59.172;17.196;2023-12-20T03:20:33;99058.34;;;0.41;96.87
61568;BME280;47462;59.172;17.196;2023-12-20T03:23:02;99044.66;;;0.42;96.82
61568;BME280;47462;59.172;17.196;2023-12-20T03:25:28;99055.69;;;0.47;96.74
61568;BME280;47462;59.172;17.196;2023-12-20T03:27:53;99059.94;;;0.51;96.52
61568;BME280;47462;59.172;17.196;2023-12-20T03:30:19;99041.97;;;0.50;96.62
61568;BME280;47462;59.172;17.196;2023-12-20T03:32:45;99037.72;;;0.49;96.27
61568;BME280;47462;59.172;17.196;2023-12-20T03:35:10;99047.84;;;0.58;96.17
61568;BME280;47462;59.172;17.196;2023-12-20T03:37:36;99053.84;;;0.59;95.94
61568;BME280;47462;59.172;17.196;2023-12-20T03:40:02;99050.34;;;0.63;95.96
61568;BME280;47462;59.172;17.196;2023-12-20T03:42:28;99040.97;;;0.62;95.99
61568;BME280;47462;59.172;17.196;2023-12-20T03:44:53;99037.50;;;0.63;95.91
61568;BME280;47462;59.172;17.196;2023-12-20T03:47:19;99040.03;;;0.64;95.83
61568;BME280;47462;59.172;17.196;2023-12-20T03:49:44;99027.31;;;0.58;95.75
61568;BME280;47462;59.172;17.196;2023-12-20T03:52:09;99022.25;;;0.53;95.86
61568;BME280;47462;59.172;17.196;2023-12-20T03:54:35;99017.19;;;0.47;95.62
61568;BME280;47462;59.172;17.196;2023-12-20T03:57:01;99002.75;;;0.42;95.95
61568;BME280;47462;59.172;17.196;2023-12-20T03:59:26;98989.97;;;0.39;96.08
61568;BME280;47462;59.172;17.196;2023-12-20T04:01:52;99001.03;;;0.42;96.35
61568;BME280;47462;59.172;17.196;2023-12-20T04:04:17;98994.25;;;0.37;96.04
61568;BME280;47462;59.172;17.196;2023-12-20T04:06:43;98991.84;;;0.26;95.47
61568;BME280;47462;59.172;17.196;2023-12-20T04:09:08;99000.47;;;0.23;95.77
61568;BME280;47462;59.172;17.196;2023-12-20T04:11:34;98995.31;;;0.25;95.68
61568;BME280;47462;59.172;17.196;2023-12-20T04:14:00;98987.63;;;0.25;95.51
61568;BME280;47462;59.172;17.196;2023-12-20T04:16:26;98985.03;;;0.26;95.71
61568;BME280;47462;59.172;17.196;2023-12-20T04:18:52;98963.03;;;0.10;95.44
61568;BME280;47462;59.172;17.196;2023-12-20T04:21:18;98974.00;;;0.18;95.39
61568;BME280;47462;59.172;17.196;2023-12-20T04:23:44;98972.38;;;0.14;95.12
61568;BME280;47462;59.172;17.196;2023-12-20T04:26:09;98974.13;;;0.10;95.49
61568;BME280;47462;59.172;17.196;2023-12-20T04:28:35;98963.13;;;0.02;95.49
61568;BME280;47462;59.172;17.196;2023-12-20T04:31:01;98968.28;;;-0.01;95.28
61568;BME280;47462;59.172;17.196;2023-12-20T04:33:26;98979.47;;;-0.07;95.49
61568;BME280;47462;59.172;17.196;2023-12-20T04:35:51;98974.47;;;-0.16;95.48
61568;BME280;47462;59.172;17.196;2023-12-20T04:38:17;98971.94;;;-0.17;95.78
61568;BME280;47462;59.172;17.196;2023-12-20T04:40:42;98975.31;;;-0.15;96.17
61568;BME280;47462;59.172;17.196;2023-12-20T04:43:08;98966.78;;;-0.17;96.04
61568;BME280;47462;59.172;17.196;2023-12-20T04:45:34;98962.50;;;-0.15;95.83
61568;BME280;47462;59.172;17.196;2023-12-20T04:48:00;98954.00;;;-0.19;95.46
61568;BME280;47462;59.172;17.196;2023-12-20T04:50:26;98948.00;;;-0.16;95.79
61568;BME280;47462;59.172;17.196;2023-12-20T04:52:51;98956.59;;;-0.21;95.77
61568;BME280;47462;59.172;17.196;2023-12-20T04:55:17;98953.19;;;-0.23;96.08
61568;BME280;47462;59.172;17.196;2023-12-20T04:57:42;98951.47;;;-0.22;96.12
61568;BME280;47462;59.172;17.196;2023-12-20T05:00:08;98948.13;;;-0.26;96.04
61568;BME280;47462;59.172;17.196;2023-12-20T05:02:35;98951.53;;;-0.27;95.52
61568;BME280;47462;59.172;17.196;2023-12-20T05:05:01;98942.13;;;-0.28;95.76
61568;BME280;47462;59.172;17.196;2023-12-20T05:07:27;98934.50;;;-0.31;95.64
61568;BME280;47462;59.172;17.196;2023-12-20T05:09:52;98942.13;;;-0.26;95.91
61568;BME280;47462;59.172;17.196;2023-12-20T05:12:19;98939.53;;;-0.25;95.69
61568;BME280;47462;59.172;17.196;2023-12-20T05:14:44;98932.78;;;-0.29;95.24
61568;BME280;47462;59.172;17.196;2023-12-20T05:17:09;98921.72;;;-0.36;95.20
61568;BME280;47462;59.172;17.196;2023-12-20T05:19:35;98925.16;;;-0.35;95.26
61568;BME280;47462;59.172;17.196;2023-12-20T05:22:01;98920.91;;;-0.36;95.44
61568;BME280;47462;59.172;17.196;2023-12-20T05:24:28;98927.72;;;-0.35;95.49
61568;BME280;47462;59.172;17.196;2023-12-20T05:26:53;98929.41;;;-0.34;95.45
61568;BME280;47462;59.172;17.196;2023-12-20T05:29:19;98924.31;;;-0.37;95.08
61568;BME280;47462;59.172;17.196;2023-12-20T05:31:45;98914.06;;;-0.37;95.74
61568;BME280;47462;59.172;17.196;2023-12-20T05:34:11;98909.75;;;-0.33;95.58
61568;BME280;47462;59.172;17.196;2023-12-20T05:36:37;98902.13;;;-0.38;95.34
61568;BME280;47462;59.172;17.196;2023-12-20T05:39:03;98907.25;;;-0.37;95.22
61568;BME280;47462;59.172;17.196;2023-12-20T05:41:30;98897.81;;;-0.36;95.69
61568;BME280;47462;59.172;17.196;2023-12-20T05:43:55;98892.69;;;-0.36;95.15
61568;BME280;47462;59.172;17.196;2023-12-20T05:46:23;98883.34;;;-0.40;95.31
61568;BME280;47462;59.172;17.196;2023-12-20T05:48:48;98861.16;;;-0.41;95.72
61568;BME280;47462;59.172;17.196;2023-12-20T05:51:13;98863.69;;;-0.38;95.86
61568;BME280;47462;59.172;17.196;2023-12-20T05:53:39;98867.06;;;-0.36;95.69
61568;BME280;47462;59.172;17.196;2023-12-20T05:56:05;98865.41;;;-0.40;95.42
61568;BME280;47462;59.172;17.196;2023-12-20T05:58:32;98879.03;;;-0.35;95.68
61568;BME280;47462;59.172;17.196;2023-12-20T06:00:58;98875.56;;;-0.34;95.52
61568;BME280;47462;59.172;17.196;2023-12-20T06:03:23;98874.75;;;-0.36;95.52
61568;BME280;47462;59.172;17.196;2023-12-20T06:05:49;98870.50;;;-0.37;95.41
61568;BME280;47462;59.172;17.196;2023-12-20T06:08:14;98869.59;;;-0.33;95.51
61568;BME280;47462;59.172;17.196;2023-12-20T06:10:40;98861.03;;;-0.32;95.19
61568;BME280;47462;59.172;17.196;2023-12-20T06:13:05;98863.66;;;-0.35;94.89
61568;BME280;47462;59.172;17.196;2023-12-20T06:15:32;98867.06;;;-0.36;94.95
61568;BME280;47462;59.172;17.196;2023-12-20T06:17:58;98869.63;;;-0.36;95.50
61568;BME280;47462;59.172;17.196;2023-12-20T06:20:24;98868.75;;;-0.33;95.27
61568;BME280;47462;59.172;17.196;2023-12-20T06:22:50;98870.44;;;-0.32;95.52
61568;BME280;47462;59.172;17.196;2023-12-20T06:25:16;98868.69;;;-0.29;95.27
61568;BME280;47462;59.172;17.196;2023-12-20T06:27:41;98866.13;;;-0.29;95.18
61568;BME280;47462;59.172;17.196;2023-12-20T06:30:08;98866.97;;;-0.28;95.32
61568;BME280;47462;59.172;17.196;2023-12-20T06:32:36;98864.34;;;-0.24;95.68
61568;BME280;47462;59.172;17.196;2023-12-20T06:35:03;98865.97;;;-0.18;95.55
61568;BME280;47462;59.172;17.196;2023-12-20T06:37:31;98839.59;;;-0.26;95.46
61568;BME280;47462;59.172;17.196;2023-12-20T06:39:56;98853.94;;;-0.14;95.67
61568;BME280;47462;59.172;17.196;2023-12-20T06:42:23;98852.97;;;-0.06;95.57
61568;BME280;47462;59.172;17.196;2023-12-20T06:44:48;98846.91;;;-0.03;95.93
61568;BME280;47462;59.172;17.196;2023-12-20T06:47:16;98852.91;;;-0.01;95.50
61568;BME280;47462;59.172;17.196;2023-12-20T06:49:41;98845.25;;;-0.04;95.66
61568;BME280;47462;59.172;17.196;2023-12-20T06:52:07;98825.72;;;-0.13;95.85
61568;BME280;47462;59.172;17.196;2023-12-20T06:54:32;98842.63;;;-0.01;95.83
61568;BME280;47462;59.172;17.196;2023-12-20T06:57:00;98843.44;;;0.01;95.96
61568;BME280;47462;59.172;17.196;2023-12-20T06:59:25;98823.91;;;-0.08;95.99
61568;BME280;47462;59.172;17.196;2023-12-20T07:01:51;98844.25;;;0.06;96.09
61568;BME280;47462;59.172;17.196;2023-12-20T07:04:17;98834.91;;;0.01;95.83
61568;BME280;47462;59.172;17.196;2023-12-20T07:06:48;98844.22;;;0.08;95.72
61568;BME280;47462;59.172;17.196;2023-12-20T07:09:13;98846.75;;;0.09;96.14
61568;BME280;47462;59.172;17.196;2023-12-20T07:11:39;98833.88;;;0.12;96.14
61568;BME280;47462;59.172;17.196;2023-12-20T07:14:05;98823.56;;;0.15;96.02
61568;BME280;47462;59.172;17.196;2023-12-20T07:16:30;98826.06;;;0.20;95.64
61568;BME280;47462;59.172;17.196;2023-12-20T07:18:56;98827.94;;;0.09;95.04
61568;BME280;47462;59.172;17.196;2023-12-20T07:21:22;98822.84;;;0.07;95.63
61568;BME280;47462;59.172;17.196;2023-12-20T07:23:48;98816.88;;;0.07;95.62
61568;BME280;47462;59.172;17.196;2023-12-20T07:26:14;98807.41;;;0.09;95.79
61568;BME280;47462;59.172;17.196;2023-12-20T07:28:39;98807.44;;;0.07;96.20
61568;BME280;47462;59.172;17.196;2023-12-20T07:31:05;98815.16;;;0.06;95.42
61568;BME280;47462;59.172;17.196;2023-12-20T07:33:31;98812.66;;;0.01;95.80
61568;BME280;47462;59.172;17.196;2023-12-20T07:35:56;98815.38;;;-0.07;95.65
61568;BME280;47462;59.172;17.196;2023-12-20T07:38:22;98814.47;;;-0.04;95.80
61568;BME280;47462;59.172;17.196;2023-12-20T07:40:47;98811.88;;;-0.03;95.91
61568;BME280;47462;59.172;17.196;2023-12-20T07:43:13;98802.47;;;-0.02;95.53
61568;BME280;47462;59.172;17.196;2023-12-20T07:45:38;98805.78;;;0.06;95.65
61568;BME280;47462;59.172;17.196;2023-12-20T07:48:05;98798.84;;;0.10;95.84
61568;BME280;47462;59.172;17.196;2023-12-20T07:50:31;98791.94;;;0.13;95.71
61568;BME280;47462;59.172;17.196;2023-12-20T07:52:56;98780.84;;;0.13;96.19
61568;BME280;47462;59.172;17.196;2023-12-20T07:55:24;98769.66;;;0.19;96.11
61568;BME280;47462;59.172;17.196;2023-12-20T07:57:50;98771.16;;;0.29;96.16
61568;BME280;47462;59.172;17.196;2023-12-20T08:00:16;98764.22;;;0.35;96.51
61568;BME280;47462;59.172;17.196;2023-12-20T08:02:42;98759.03;;;0.39;96.03
61568;BME280;47462;59.172;17.196;2023-12-20T08:05:07;98756.50;;;0.37;95.99
61568;BME280;47462;59.172;17.196;2023-12-20T08:07:33;98764.13;;;0.40;95.61
61568;BME280;47462;59.172;17.196;2023-12-20T08:09:59;98747.94;;;0.35;95.90
61568;BME280;47462;59.172;17.196;2023-12-20T08:12:24;98739.56;;;0.27;95.84
61568;BME280;47462;59.172;17.196;2023-12-20T08:14:53;98766.59;;;0.45;95.97
61568;BME280;47462;59.172;17.196;2023-12-20T08:17:19;98769.16;;;0.46;95.64
61568;BME280;47462;59.172;17.196;2023-12-20T08:19:45;98765.69;;;0.47;96.16
61568;BME280;47462;59.172;17.196;2023-12-20T08:22:11;98757.19;;;0.45;95.90
61568;BME280;47462;59.172;17.196;2023-12-20T08:24:37;98760.41;;;0.55;96.28
61568;BME280;47462;59.172;17.196;2023-12-20T08:27:04;98761.22;;;0.59;96.10
61568;BME280;47462;59.172;17.196;2023-12-20T08:29:29;98761.16;;;0.62;96.28
61568;BME280;47462;59.172;17.196;2023-12-20T08:31:56;98755.09;;;0.66;96.17
61568;BME280;47462;59.172;17.196;2023-12-20T08:34:22;98741.34;;;0.67;96.56
61568;BME280;47462;59.172;17.196;2023-12-20T08:36:50;98744.69;;;0.72;96.80
61568;BME280;47462;59.172;17.196;2023-12-20T08:39:15;98738.53;;;0.79;96.44
61568;BME280;47462;59.172;17.196;2023-12-20T08:41:41;98735.97;;;0.79;96.67
61568;BME280;47462;59.172;17.196;2023-12-20T08:44:07;98729.97;;;0.80;96.65
61568;BME280;47462;59.172;17.196;2023-12-20T08:46:32;98730.72;;;0.85;97.01
61568;BME280;47462;59.172;17.196;2023-12-20T08:48:58;98721.38;;;0.83;96.87
61568;BME280;47462;59.172;17.196;2023-12-20T08:51:23;98723.72;;;0.94;96.82
61568;BME280;47462;59.172;17.196;2023-12-20T08:53:51;98719.38;;;0.96;96.51
61568;BME280;47462;59.172;17.196;2023-12-20T08:56:17;98714.13;;;1.00;96.60
61568;BME280;47462;59.172;17.196;2023-12-20T08:58:44;98710.59;;;1.06;96.10
61568;BME280;47462;59.172;17.196;2023-12-20T09:01:10;98712.19;;;1.10;96.13
61568;BME280;47462;59.172;17.196;2023-12-20T09:03:35;98709.56;;;1.13;96.09
61568;BME280;47462;59.172;17.196;2023-12-20T09:06:01;98709.56;;;1.13;96.12
61568;BME280;47462;59.172;17.196;2023-12-20T09:08:26;98703.47;;;1.17;96.23
61568;BME280;47462;59.172;17.196;2023-12-20T09:10:52;98699.22;;;1.16;96.37
61568;BME280;47462;59.172;17.196;2023-12-20T09:13:17;98700.06;;;1.17;96.32
61568;BME280;47462;59.172;17.196;2023-12-20T09:15:43;98700.06;;;1.17;96.24
61568;BME280;47462;59.172;17.196;2023-12-20T09:18:08;98691.47;;;1.18;96.58
61568;BME280;47462;59.172;17.196;2023-12-20T09:20:38;98694.06;;;1.16;96.51
61568;BME280;47462;59.172;17.196;2023-12-20T09:23:04;98697.47;;;1.18;96.50
61568;BME280;47462;59.172;17.196;2023-12-20T09:25:30;98688.84;;;1.21;96.54
61568;BME280;47462;59.172;17.196;2023-12-20T09:27:56;98681.22;;;1.16;96.37
61568;BME280;47462;59.172;17.196;2023-12-20T09:30:22;98676.03;;;1.19;96.07
61568;BME280;47462;59.172;17.196;2023-12-20T09:32:48;98675.06;;;1.23;96.36
61568;BME280;47462;59.172;17.196;2023-12-20T09:35:14;98675.91;;;1.24;96.41
61568;BME280;47462;59.172;17.196;2023-12-20T09:37:41;98664.72;;;1.27;96.37
61568;BME280;47462;59.172;17.196;2023-12-20T09:40:13;98668.13;;;1.27;96.44
61568;BME280;47462;59.172;17.196;2023-12-20T09:42:54;98650.94;;;1.31;96.15
61568;BME280;47462;59.172;17.196;2023-12-20T09:45:22;98653.41;;;1.35;96.29
61568;BME280;47462;59.172;17.196;2023-12-20T09:47:48;98643.88;;;1.39;96.25
61568;BME280;47462;59.172;17.196;2023-12-20T09:50:19;98639.59;;;1.39;95.89
61568;BME280;47462;59.172;17.196;2023-12-20T09:52:50;98632.72;;;1.40;95.74
61568;BME280;47462;59.172;17.196;2023-12-20T09:55:17;98622.59;;;1.34;95.89
61568;BME280;47462;59.172;17.196;2023-12-20T09:57:44;98628.50;;;1.37;96.19
61568;BME280;47462;59.172;17.196;2023-12-20T10:00:10;98633.63;;;1.37;96.12
61568;BME280;47462;59.172;17.196;2023-12-20T10:02:38;98618.16;;;1.39;96.33
61568;BME280;47462;59.172;17.196;2023-12-20T10:05:15;98622.38;;;1.43;96.32
61568;BME280;47462;59.172;17.196;2023-12-20T10:07:42;98613.81;;;1.42;96.45
61568;BME280;47462;59.172;17.196;2023-12-20T10:10:10;98603.56;;;1.41;96.39
61568;BME280;47462;59.172;17.196;2023-12-20T10:12:36;98611.09;;;1.49;96.53
61568;BME280;47462;59.172;17.196;2023-12-20T10:15:02;98594.00;;;1.46;96.56
61568;BME280;47462;59.172;17.196;2023-12-20T10:17:31;98597.38;;;1.48;96.35
61568;BME280;47462;59.172;17.196;2023-12-20T10:19:58;98588.00;;;1.47;96.85
61568;BME280;47462;59.172;17.196;2023-12-20T10:22:24;98589.69;;;1.47;96.56
61568;BME280;47462;59.172;17.196;2023-12-20T10:24:50;98591.44;;;1.46;96.15
61568;BME280;47462;59.172;17.196;2023-12-20T10:27:18;98586.47;;;1.40;96.39
61568;BME280;47462;59.172;17.196;2023-12-20T10:29:46;98582.09;;;1.42;96.18
61568;BME280;47462;59.172;17.196;2023-12-20T10:32:31;98565.72;;;1.46;96.78
61568;BME280;47462;59.172;17.196;2023-12-20T10:34:57;98568.22;;;1.49;96.59
61568;BME280;47462;59.172;17.196;2023-12-20T10:37:28;98549.69;;;1.38;96.54
61568;BME280;47462;59.172;17.196;2023-12-20T10:39:54;98560.59;;;1.46;96.45
61568;BME280;47462;59.172;17.196;2023-12-20T10:42:26;98556.22;;;1.50;96.49
61568;BME280;47462;59.172;17.196;2023-12-20T10:44:53;98535.72;;;1.47;96.77
61568;BME280;47462;59.172;17.196;2023-12-20T10:47:20;98545.00;;;1.52;96.65
61568;BME280;47462;59.172;17.196;2023-12-20T10:49:45;98543.16;;;1.57;96.50
61568;BME280;47462;59.172;17.196;2023-12-20T10:52:11;98537.31;;;1.52;96.19
61568;BME280;47462;59.172;17.196;2023-12-20T10:54:39;98538.06;;;1.56;96.51
61568;BME280;47462;59.172;17.196;2023-12-20T10:57:09;98534.56;;;1.58;96.28
61568;BME280;47462;59.172;17.196;2023-12-20T10:59:36;98535.19;;;1.67;96.33
61568;BME280;47462;59.172;17.196;2023-12-20T11:02:05;98525.88;;;1.63;96.38
61568;BME280;47462;59.172;17.196;2023-12-20T11:04:50;98531.66;;;1.71;96.70
61568;BME280;47462;59.172;17.196;2023-12-20T11:07:41;98523.81;;;1.75;96.23
61568;BME280;47462;59.172;17.196;2023-12-20T11:10:29;98519.47;;;1.77;96.41
61568;BME280;47462;59.172;17.196;2023-12-20T11:13:00;98501.63;;;1.71;96.03
61568;BME280;47462;59.172;17.196;2023-12-20T11:15:35;98503.91;;;1.82;96.34
61568;BME280;47462;59.172;17.196;2023-12-20T11:18:01;98493.69;;;1.79;96.10
61568;BME280;47462;59.172;17.196;2023-12-20T11:20:41;98498.66;;;1.85;95.92
61568;BME280;47462;59.172;17.196;2023-12-20T11:23:08;98496.13;;;1.84;95.84
61568;BME280;47462;59.172;17.196;2023-12-20T11:25:47;98487.50;;;1.86;96.15
61568;BME280;47462;59.172;17.196;2023-12-20T11:28:15;98485.94;;;1.81;96.00
61568;BME280;47462;59.172;17.196;2023-12-20T11:30:53;98486.72;;;1.84;96.37
61568;BME280;47462;59.172;17.196;2023-12-20T11:33:24;98489.38;;;1.81;96.22
61568;BME280;47462;59.172;17.196;2023-12-20T11:35:50;98479.97;;;1.80;96.37
61568;BME280;47462;59.172;17.196;2023-12-20T11:38:16;98479.88;;;1.83;96.39
61568;BME280;47462;59.172;17.196;2023-12-20T11:40:42;98478.91;;;1.87;96.53
61568;BME280;47462;59.172;17.196;2023-12-20T11:43:09;98468.53;;;1.90;96.40
61568;BME280;47462;59.172;17.196;2023-12-20T11:45:34;98471.00;;;1.93;96.52
61568;BME280;47462;59.172;17.196;2023-12-20T11:48:01;98459.03;;;1.92;96.50
61568;BME280;47462;59.172;17.196;2023-12-20T11:50:28;98458.84;;;1.99;96.46
61568;BME280;47462;59.172;17.196;2023-12-20T11:52:57;98463.84;;;2.03;96.53
61568;BME280;47462;59.172;17.196;2023-12-20T11:55:23;98464.75;;;2.02;96.53
61568;BME280;47462;59.172;17.196;2023-12-20T11:57:52;98465.69;;;2.00;96.21
61568;BME280;47462;59.172;17.196;2023-12-20T12:00:19;98454.63;;;1.96;96.58
61568;BME280;47462;59.172;17.196;2023-12-20T12:02:58;98452.78;;;2.01;96.54
61568;BME280;47462;59.172;17.196;2023-12-20T12:05:24;98453.50;;;2.05;96.72
61568;BME280;47462;59.172;17.196;2023-12-20T12:07:53;98449.31;;;2.02;96.28
61568;BME280;47462;59.172;17.196;2023-12-20T12:10:18;98419.66;;;1.90;97.05
61568;BME280;47462;59.172;17.196;2023-12-20T12:12:44;98423.09;;;1.89;96.80
61568;BME280;47462;59.172;17.196;2023-12-20T12:15:10;98432.34;;;1.96;97.33
61568;BME280;47462;59.172;17.196;2023-12-20T12:17:36;98428.84;;;1.99;97.17
61568;BME280;47462;59.172;17.196;2023-12-20T12:20:04;98438.06;;;2.05;97.23
61568;BME280;47462;59.172;17.196;2023-12-20T12:22:30;98438.16;;;2.02;97.14
61568;BME280;47462;59.172;17.196;2023-12-20T12:24:59;98429.56;;;2.03;97.20
61568;BME280;47462;59.172;17.196;2023-12-20T12:27:25;98430.25;;;2.08;97.49
61568;BME280;47462;59.172;17.196;2023-12-20T12:30:05;98437.25;;;2.04;97.26
61568;BME280;47462;59.172;17.196;2023-12-20T12:32:32;98429.72;;;1.98;97.21
61568;BME280;47462;59.172;17.196;2023-12-20T12:35:02;98426.22;;;2.01;97.70
61568;BME280;47462;59.172;17.196;2023-12-20T12:37:28;98417.50;;;2.05;97.63
61568;BME280;47462;59.172;17.196;2023-12-20T12:39:54;98414.09;;;2.04;97.96
61568;BME280;47462;59.172;17.196;2023-12-20T12:42:20;98413.06;;;2.10;98.04
61568;BME280;47462;59.172;17.196;2023-12-20T12:44:46;98390.88;;;2.06;98.02
61568;BME280;47462;59.172;17.196;2023-12-20T12:47:12;98381.47;;;2.05;98.51
61568;BME280;47462;59.172;17.196;2023-12-20T12:49:37;98398.31;;;2.15;98.58
61568;BME280;47462;59.172;17.196;2023-12-20T12:52:05;98386.56;;;2.06;98.63